KLM757A EHAM-MPTO
Flight info
| Callsign | KLM757A |
|---|---|
| Flight time | N/A |
| Altitude | 32000 |
| Route | IDRID L980 LOGAN DCT SAM N19 ADKIK DCT JOZMA DCT GAPLI/M084F340 DCT OMOKO DCT 46N020W 43N030W 40N040W 38N045W 35N050W/M084F360 DCT SIFEN DCT QNEPA M597 KEEKA/N0488F360 M597 JANMA DCT BETIR/N0477F380 UM597 AGUJA LODOP1C |
| Aircraft | B77W/H-SDE1E2E3FGHIJ2J3J4J5M1RWXY/LB1D1 |
Departure
| Time | 2026-04-18 09:34 |
|---|---|
| Airport | Amsterdam Airport Schiphol (EHAM) |
Arrival
| Time | N/A |
|---|---|
| Airport | Tocumen International Airport (MPTO) |
| Time | Latitude | Longitude | Altitude | Speed | Heading |
|---|---|---|---|---|---|
| 2026-04-18 08:38 | 52.31343 | 4.76981 | 4 ft | 0 kts | 303° |
| 2026-04-18 09:21 | 52.31339 | 4.76991 | 4 ft | 2 kts | 303° |
| 2026-04-18 09:21 | 52.31328 | 4.77018 | 5 ft | 3 kts | 303° |
| 2026-04-18 09:21 | 52.31316 | 4.77045 | 6 ft | 3 kts | 303° |
| 2026-04-18 09:22 | 52.31305 | 4.77072 | 7 ft | 3 kts | 303° |
| 2026-04-18 09:22 | 52.31295 | 4.77098 | 6 ft | 3 kts | 282° |
| 2026-04-18 09:22 | 52.31295 | 4.77129 | 6 ft | 3 kts | 266° |
| 2026-04-18 09:22 | 52.31295 | 4.77161 | 5 ft | 3 kts | 273° |
| 2026-04-18 09:23 | 52.31294 | 4.77194 | 4 ft | 3 kts | 273° |
| 2026-04-18 09:23 | 52.31293 | 4.77227 | 4 ft | 3 kts | 273° |
| 2026-04-18 09:23 | 52.31292 | 4.77260 | 5 ft | 3 kts | 273° |
| 2026-04-18 09:23 | 52.31291 | 4.77293 | 5 ft | 3 kts | 273° |
| 2026-04-18 09:24 | 52.31289 | 4.77326 | 7 ft | 3 kts | 273° |
| 2026-04-18 09:24 | 52.31289 | 4.77339 | 7 ft | 0 kts | 273° |
| 2026-04-18 09:28 | 52.31290 | 4.77312 | 5 ft | 11 kts | 273° |
| 2026-04-18 09:28 | 52.31288 | 4.77118 | 5 ft | 18 kts | 249° |
| 2026-04-18 09:28 | 52.31192 | 4.76986 | 4 ft | 18 kts | 214° |
| 2026-04-18 09:28 | 52.31088 | 4.77010 | 4 ft | 18 kts | 111° |
| 2026-04-18 09:29 | 52.31074 | 4.77216 | 4 ft | 18 kts | 92° |
| 2026-04-18 09:29 | 52.31068 | 4.77424 | 4 ft | 18 kts | 94° |
| 2026-04-18 09:29 | 52.30984 | 4.77486 | 4 ft | 15 kts | 186° |
| 2026-04-18 09:29 | 52.30880 | 4.77469 | 4 ft | 15 kts | 185° |
| 2026-04-18 09:30 | 52.30778 | 4.77455 | 4 ft | 15 kts | 184° |
| 2026-04-18 09:30 | 52.30673 | 4.77461 | 4 ft | 15 kts | 162° |
| 2026-04-18 09:30 | 52.30579 | 4.77532 | 4 ft | 15 kts | 153° |
| 2026-04-18 09:30 | 52.30481 | 4.77576 | 3 ft | 15 kts | 181° |
| 2026-04-18 09:31 | 52.30466 | 4.77575 | 3 ft | 0 kts | 181° |
| 2026-04-18 09:32 | 52.30465 | 4.77575 | 3 ft | 2 kts | 181° |
| 2026-04-18 09:32 | 52.30400 | 4.77555 | 2 ft | 14 kts | 210° |
| 2026-04-18 09:32 | 52.30356 | 4.77474 | 2 ft | 0 kts | 237° |
| 2026-04-18 09:33 | 52.30355 | 4.77471 | 2 ft | 3 kts | 237° |
| 2026-04-18 09:33 | 52.30249 | 4.77203 | 1 ft | 63 kts | 237° |
| 2026-04-18 09:33 | 52.29891 | 4.76271 | 1 ft | 129 kts | 238° |
| 2026-04-18 09:34 | 52.29325 | 4.74782 | 5 ft | 181 kts | 240° |
| 2026-04-18 09:34 | 52.28684 | 4.72955 | 475 ft | 186 kts | 240° |
| 2026-04-18 09:34 | 52.28007 | 4.71136 | 1046 ft | 186 kts | 240° |
| 2026-04-18 09:34 | 52.27277 | 4.69374 | 1581 ft | 191 kts | 227° |
| 2026-04-18 09:35 | 52.26250 | 4.67898 | 1873 ft | 204 kts | 224° |
| 2026-04-18 09:35 | 52.25159 | 4.66239 | 2089 ft | 223 kts | 225° |
| 2026-04-18 09:35 | 52.24135 | 4.64326 | 2451 ft | 227 kts | 246° |
| 2026-04-18 09:35 | 52.23662 | 4.61854 | 2917 ft | 230 kts | 253° |
| 2026-04-18 09:36 | 52.23175 | 4.59366 | 3539 ft | 232 kts | 251° |
| 2026-04-18 09:36 | 52.22651 | 4.56835 | 4069 ft | 239 kts | 251° |
| 2026-04-18 09:36 | 52.22113 | 4.54252 | 4702 ft | 241 kts | 251° |
| 2026-04-18 09:36 | 52.21568 | 4.51654 | 5380 ft | 243 kts | 251° |
| 2026-04-18 09:37 | 52.21015 | 4.49022 | 5969 ft | 247 kts | 250° |
| 2026-04-18 09:37 | 52.20455 | 4.46359 | 6567 ft | 250 kts | 250° |
| 2026-04-18 09:37 | 52.19887 | 4.43659 | 7145 ft | 252 kts | 250° |
| 2026-04-18 09:37 | 52.19314 | 4.40945 | 7713 ft | 255 kts | 250° |
| 2026-04-18 09:38 | 52.18735 | 4.38203 | 8305 ft | 257 kts | 250° |
| 2026-04-18 09:38 | 52.18149 | 4.35431 | 8905 ft | 259 kts | 250° |
| 2026-04-18 09:38 | 52.17567 | 4.32678 | 9486 ft | 262 kts | 250° |
| 2026-04-18 09:38 | 52.16962 | 4.29823 | 10072 ft | 264 kts | 250° |
| 2026-04-18 09:39 | 52.16365 | 4.27011 | 10511 ft | 271 kts | 250° |
| 2026-04-18 09:39 | 52.15717 | 4.23965 | 10669 ft | 290 kts | 250° |
| 2026-04-18 09:39 | 52.15046 | 4.20812 | 10841 ft | 309 kts | 250° |
| 2026-04-18 09:39 | 52.14312 | 4.17375 | 11014 ft | 331 kts | 250° |
| 2026-04-18 09:40 | 52.13540 | 4.13758 | 11362 ft | 344 kts | 250° |
| 2026-04-18 09:40 | 52.12743 | 4.10034 | 11959 ft | 351 kts | 250° |
| 2026-04-18 09:40 | 52.12061 | 4.06848 | 12608 ft | 354 kts | 250° |
| 2026-04-18 09:40 | 52.11248 | 4.03056 | 13243 ft | 357 kts | 250° |
| 2026-04-18 09:41 | 52.10424 | 3.99222 | 13956 ft | 362 kts | 250° |
| 2026-04-18 09:41 | 52.09590 | 3.95345 | 14739 ft | 363 kts | 250° |
| 2026-04-18 09:41 | 52.08752 | 3.91459 | 15529 ft | 365 kts | 250° |
| 2026-04-18 09:41 | 52.07909 | 3.87562 | 16303 ft | 367 kts | 250° |
| 2026-04-18 09:42 | 52.07056 | 3.83628 | 17000 ft | 371 kts | 250° |
| 2026-04-18 09:42 | 52.06190 | 3.79646 | 17686 ft | 375 kts | 250° |
| 2026-04-18 09:42 | 52.05312 | 3.75624 | 18387 ft | 379 kts | 250° |
| 2026-04-18 09:42 | 52.04425 | 3.71569 | 19013 ft | 382 kts | 250° |
| 2026-04-18 09:43 | 52.03534 | 3.67498 | 19680 ft | 383 kts | 250° |
| 2026-04-18 09:43 | 52.02638 | 3.63409 | 20362 ft | 385 kts | 249° |
| 2026-04-18 09:43 | 52.01740 | 3.59311 | 21000 ft | 387 kts | 249° |
| 2026-04-18 09:43 | 52.00833 | 3.55192 | 21620 ft | 389 kts | 249° |
| 2026-04-18 09:44 | 51.99924 | 3.51097 | 22231 ft | 391 kts | 248° |
| 2026-04-18 09:44 | 51.98699 | 3.47162 | 22788 ft | 393 kts | 235° |
| 2026-04-18 09:44 | 51.97047 | 3.43633 | 23435 ft | 394 kts | 233° |
| 2026-04-18 09:44 | 51.95366 | 3.40104 | 23989 ft | 397 kts | 233° |
| 2026-04-18 09:45 | 51.93696 | 3.36517 | 24404 ft | 400 kts | 234° |
| 2026-04-18 09:45 | 51.92034 | 3.32886 | 24892 ft | 402 kts | 234° |
| 2026-04-18 09:45 | 51.90374 | 3.29231 | 25413 ft | 403 kts | 234° |
| 2026-04-18 09:45 | 51.89276 | 3.26811 | 25753 ft | 403 kts | 234° |
| 2026-04-18 09:46 | 51.87614 | 3.23131 | 26220 ft | 404 kts | 236° |
| 2026-04-18 09:46 | 51.86225 | 3.19164 | 26611 ft | 407 kts | 245° |
| 2026-04-18 09:46 | 51.85205 | 3.14869 | 27039 ft | 410 kts | 250° |
| 2026-04-18 09:46 | 51.84446 | 3.10415 | 27479 ft | 413 kts | 257° |
| 2026-04-18 09:47 | 51.84078 | 3.05791 | 27914 ft | 416 kts | 262° |
| 2026-04-18 09:47 | 51.83808 | 3.01110 | 28317 ft | 418 kts | 262° |
| 2026-04-18 09:47 | 51.83532 | 2.96408 | 28699 ft | 420 kts | 261° |
| 2026-04-18 09:47 | 51.83247 | 2.91754 | 29071 ft | 422 kts | 261° |
| 2026-04-18 09:48 | 51.82945 | 2.87003 | 29311 ft | 427 kts | 261° |
| 2026-04-18 09:48 | 51.82631 | 2.82202 | 29571 ft | 430 kts | 261° |
| 2026-04-18 09:48 | 51.82314 | 2.77395 | 30038 ft | 428 kts | 261° |
| 2026-04-18 09:48 | 51.81998 | 2.72615 | 30529 ft | 426 kts | 261° |
| 2026-04-18 09:49 | 51.81680 | 2.67870 | 30911 ft | 425 kts | 261° |
| 2026-04-18 09:49 | 51.81356 | 2.63104 | 31202 ft | 426 kts | 261° |
| 2026-04-18 09:49 | 51.81029 | 2.58348 | 31495 ft | 426 kts | 261° |
| 2026-04-18 09:49 | 51.80700 | 2.53593 | 31809 ft | 426 kts | 261° |
| 2026-04-18 09:50 | 51.80369 | 2.48837 | 32121 ft | 426 kts | 261° |
| 2026-04-18 09:50 | 51.80034 | 2.44057 | 32162 ft | 430 kts | 261° |
| 2026-04-18 09:50 | 51.79364 | 2.34523 | 32226 ft | 428 kts | 261° |
| 2026-04-18 09:51 | 51.78687 | 2.24991 | 32195 ft | 426 kts | 261° |
| 2026-04-18 09:51 | 51.78063 | 2.15501 | 32218 ft | 424 kts | 262° |
| 2026-04-18 09:52 | 51.77792 | 2.10761 | 32227 ft | 424 kts | 262° |